sensor_id;sensor_type;location;lat;lon;timestamp;temperature;humidity
3758;DHT22;1894;51.038;13.692;2022-09-09T00:02:18;15.60;99.90
3758;DHT22;1894;51.038;13.692;2022-09-09T00:05:00;15.60;99.90
3758;DHT22;1894;51.038;13.692;2022-09-09T00:07:52;15.60;99.90
3758;DHT22;1894;51.038;13.692;2022-09-09T00:10:37;15.50;99.90
3758;DHT22;1894;51.038;13.692;2022-09-09T00:13:16;15.50;99.90
3758;DHT22;1894;51.038;13.692;2022-09-09T00:16:09;15.50;99.90
3758;DHT22;1894;51.038;13.692;2022-09-09T00:19:03;15.50;99.90
3758;DHT22;1894;51.038;13.692;2022-09-09T00:21:36;15.50;99.90
3758;DHT22;1894;51.038;13.692;2022-09-09T00:24:32;15.50;99.90
3758;DHT22;1894;51.038;13.692;2022-09-09T00:27:11;15.50;99.90
3758;DHT22;1894;51.038;13.692;2022-09-09T00:32:28;15.60;99.90
3758;DHT22;1894;51.038;13.692;2022-09-09T00:35:02;15.50;99.90
3758;DHT22;1894;51.038;13.692;2022-09-09T00:37:32;15.50;99.90
3758;DHT22;1894;51.038;13.692;2022-09-09T00:40:11;15.50;99.90
3758;DHT22;1894;51.038;13.692;2022-09-09T00:42:49;15.50;99.90
3758;DHT22;1894;51.038;13.692;2022-09-09T00:49:09;15.50;99.90
3758;DHT22;1894;51.038;13.692;2022-09-09T00:54:38;15.40;99.90
3758;DHT22;1894;51.038;13.692;2022-09-09T00:57:30;15.40;99.90
3758;DHT22;1894;51.038;13.692;2022-09-09T01:06:14;15.30;99.90
3758;DHT22;1894;51.038;13.692;2022-09-09T01:12:16;15.40;99.90
3758;DHT22;1894;51.038;13.692;2022-09-09T01:15:01;15.40;99.90
3758;DHT22;1894;51.038;13.692;2022-09-09T01:18:04;15.50;99.90
3758;DHT22;1894;51.038;13.692;2022-09-09T01:20:41;15.50;99.90
3758;DHT22;1894;51.038;13.692;2022-09-09T01:26:41;15.50;99.90
3758;DHT22;1894;51.038;13.692;2022-09-09T01:29:21;15.50;99.90
3758;DHT22;1894;51.038;13.692;2022-09-09T01:31:56;15.50;99.90
3758;DHT22;1894;51.038;13.692;2022-09-09T01:34:33;15.40;99.90
3758;DHT22;1894;51.038;13.692;2022-09-09T01:37:09;15.40;99.90
3758;DHT22;1894;51.038;13.692;2022-09-09T01:39:40;15.40;99.90
3758;DHT22;1894;51.038;13.692;2022-09-09T01:42:14;15.40;99.90
3758;DHT22;1894;51.038;13.692;2022-09-09T01:44:42;15.40;99.90
3758;DHT22;1894;51.038;13.692;2022-09-09T01:47:10;15.40;99.90
3758;DHT22;1894;51.038;13.692;2022-09-09T01:49:54;15.40;99.90
3758;DHT22;1894;51.038;13.692;2022-09-09T01:52:25;15.40;99.90
3758;DHT22;1894;51.038;13.692;2022-09-09T01:54:52;15.30;99.90
3758;DHT22;1894;51.038;13.692;2022-09-09T01:57:27;15.30;99.90
3758;DHT22;1894;51.038;13.692;2022-09-09T02:00:07;15.30;99.90
3758;DHT22;1894;51.038;13.692;2022-09-09T02:05:41;15.20;99.90
3758;DHT22;1894;51.038;13.692;2022-09-09T02:08:33;15.10;99.90
3758;DHT22;1894;51.038;13.692;2022-09-09T02:11:08;15.10;99.90
3758;DHT22;1894;51.038;13.692;2022-09-09T02:13:46;15.10;99.90
3758;DHT22;1894;51.038;13.692;2022-09-09T02:16:18;15.00;99.90
3758;DHT22;1894;51.038;13.692;2022-09-09T02:22:00;15.00;99.90
3758;DHT22;1894;51.038;13.692;2022-09-09T02:24:30;14.90;99.90
3758;DHT22;1894;51.038;13.692;2022-09-09T02:27:12;14.90;99.90
3758;DHT22;1894;51.038;13.692;2022-09-09T02:29:41;14.80;99.90
3758;DHT22;1894;51.038;13.692;2022-09-09T02:32:23;14.80;99.90
3758;DHT22;1894;51.038;13.692;2022-09-09T02:34:56;14.70;99.90
3758;DHT22;1894;51.038;13.692;2022-09-09T02:37:37;14.70;99.90
3758;DHT22;1894;51.038;13.692;2022-09-09T02:40:08;14.70;99.90
3758;DHT22;1894;51.038;13.692;2022-09-09T02:42:47;14.60;99.90
3758;DHT22;1894;51.038;13.692;2022-09-09T02:45:20;14.60;99.90
3758;DHT22;1894;51.038;13.692;2022-09-09T02:53:50;14.40;99.90
3758;DHT22;1894;51.038;13.692;2022-09-09T02:56:25;14.40;99.90
3758;DHT22;1894;51.038;13.692;2022-09-09T02:58:56;14.30;99.90
3758;DHT22;1894;51.038;13.692;2022-09-09T03:01:25;14.20;99.90
3758;DHT22;1894;51.038;13.692;2022-09-09T03:03:52;14.20;99.90
3758;DHT22;1894;51.038;13.692;2022-09-09T03:06:19;14.10;99.90
3758;DHT22;1894;51.038;13.692;2022-09-09T03:08:54;14.00;99.90
3758;DHT22;1894;51.038;13.692;2022-09-09T03:11:24;13.90;99.90
3758;DHT22;1894;51.038;13.692;2022-09-09T03:13:51;13.90;99.90
3758;DHT22;1894;51.038;13.692;2022-09-09T03:16:20;13.90;99.90
3758;DHT22;1894;51.038;13.692;2022-09-09T03:18:50;13.80;99.90
3758;DHT22;1894;51.038;13.692;2022-09-09T03:21:19;13.80;99.90
3758;DHT22;1894;51.038;13.692;2022-09-09T03:23:46;13.90;99.90
3758;DHT22;1894;51.038;13.692;2022-09-09T03:26:14;14.10;99.90
3758;DHT22;1894;51.038;13.692;2022-09-09T03:28:46;14.20;99.90
3758;DHT22;1894;51.038;13.692;2022-09-09T03:31:17;14.20;99.90
3758;DHT22;1894;51.038;13.692;2022-09-09T03:33:45;14.40;99.90
3758;DHT22;1894;51.038;13.692;2022-09-09T03:36:14;14.40;99.90
3758;DHT22;1894;51.038;13.692;2022-09-09T03:38:42;14.40;99.90
3758;DHT22;1894;51.038;13.692;2022-09-09T03:41:09;14.30;99.90
3758;DHT22;1894;51.038;13.692;2022-09-09T03:43:38;14.30;99.90
3758;DHT22;1894;51.038;13.692;2022-09-09T03:46:05;14.20;99.90
3758;DHT22;1894;51.038;13.692;2022-09-09T03:48:32;14.10;99.90
3758;DHT22;1894;51.038;13.692;2022-09-09T03:51:00;13.90;99.90
3758;DHT22;1894;51.038;13.692;2022-09-09T03:53:30;13.80;99.90
3758;DHT22;1894;51.038;13.692;2022-09-09T03:55:58;13.80;99.90
3758;DHT22;1894;51.038;13.692;2022-09-09T03:58:30;13.70;99.90
3758;DHT22;1894;51.038;13.692;2022-09-09T04:01:08;13.70;99.90
3758;DHT22;1894;51.038;13.692;2022-09-09T04:03:38;13.70;99.90
3758;DHT22;1894;51.038;13.692;2022-09-09T04:06:08;13.60;99.90
3758;DHT22;1894;51.038;13.692;2022-09-09T04:08:36;13.60;99.90
3758;DHT22;1894;51.038;13.692;2022-09-09T04:11:06;13.60;99.90
3758;DHT22;1894;51.038;13.692;2022-09-09T04:13:35;13.60;99.90
3758;DHT22;1894;51.038;13.692;2022-09-09T04:16:10;13.60;99.90
3758;DHT22;1894;51.038;13.692;2022-09-09T04:18:42;13.60;99.90
3758;DHT22;1894;51.038;13.692;2022-09-09T04:21:10;13.60;99.90
3758;DHT22;1894;51.038;13.692;2022-09-09T04:23:39;13.70;99.90
3758;DHT22;1894;51.038;13.692;2022-09-09T04:26:07;13.70;99.90
3758;DHT22;1894;51.038;13.692;2022-09-09T04:28:35;13.70;99.90
3758;DHT22;1894;51.038;13.692;2022-09-09T04:31:08;13.70;99.90
3758;DHT22;1894;51.038;13.692;2022-09-09T04:33:39;13.70;99.90
3758;DHT22;1894;51.038;13.692;2022-09-09T04:36:09;13.70;99.90
3758;DHT22;1894;51.038;13.692;2022-09-09T04:38:36;13.70;99.90
3758;DHT22;1894;51.038;13.692;2022-09-09T04:41:05;13.60;99.90
3758;DHT22;1894;51.038;13.692;2022-09-09T04:43:39;13.70;99.90
3758;DHT22;1894;51.038;13.692;2022-09-09T04:46:08;13.70;99.90
3758;DHT22;1894;51.038;13.692;2022-09-09T04:48:36;13.70;99.90
3758;DHT22;1894;51.038;13.692;2022-09-09T04:51:08;13.80;99.90
3758;DHT22;1894;51.038;13.692;2022-09-09T04:53:36;13.80;99.90
3758;DHT22;1894;51.038;13.692;2022-09-09T04:56:09;13.70;99.90
3758;DHT22;1894;51.038;13.692;2022-09-09T04:58:42;13.70;99.90
3758;DHT22;1894;51.038;13.692;2022-09-09T05:01:16;13.70;99.90
3758;DHT22;1894;51.038;13.692;2022-09-09T05:03:46;13.80;99.90
3758;DHT22;1894;51.038;13.692;2022-09-09T05:06:19;13.90;99.90
3758;DHT22;1894;51.038;13.692;2022-09-09T05:08:49;13.90;99.90
3758;DHT22;1894;51.038;13.692;2022-09-09T05:11:22;14.00;99.90
3758;DHT22;1894;51.038;13.692;2022-09-09T05:13:59;14.00;99.90
3758;DHT22;1894;51.038;13.692;2022-09-09T05:16:28;14.20;99.90
3758;DHT22;1894;51.038;13.692;2022-09-09T05:18:56;14.40;99.90
3758;DHT22;1894;51.038;13.692;2022-09-09T05:21:26;14.40;99.90
3758;DHT22;1894;51.038;13.692;2022-09-09T05:23:54;14.50;99.90
3758;DHT22;1894;51.038;13.692;2022-09-09T05:26:22;14.40;99.90
3758;DHT22;1894;51.038;13.692;2022-09-09T05:28:52;14.40;99.90
3758;DHT22;1894;51.038;13.692;2022-09-09T05:31:20;14.50;99.90
3758;DHT22;1894;51.038;13.692;2022-09-09T05:33:50;14.60;99.90
3758;DHT22;1894;51.038;13.692;2022-09-09T05:36:19;14.70;99.90
3758;DHT22;1894;51.038;13.692;2022-09-09T05:38:51;14.80;99.90
3758;DHT22;1894;51.038;13.692;2022-09-09T05:41:21;15.10;99.90
3758;DHT22;1894;51.038;13.692;2022-09-09T05:43:52;15.30;99.90
3758;DHT22;1894;51.038;13.692;2022-09-09T05:46:22;15.50;99.90
3758;DHT22;1894;51.038;13.692;2022-09-09T05:48:53;15.50;99.90
3758;DHT22;1894;51.038;13.692;2022-09-09T05:51:28;15.60;99.90
3758;DHT22;1894;51.038;13.692;2022-09-09T05:53:59;15.60;99.90
3758;DHT22;1894;51.038;13.692;2022-09-09T05:56:29;15.80;99.90
3758;DHT22;1894;51.038;13.692;2022-09-09T05:58:58;15.80;99.90
3758;DHT22;1894;51.038;13.692;2022-09-09T06:01:30;15.80;99.90
3758;DHT22;1894;51.038;13.692;2022-09-09T06:03:59;15.90;99.90
3758;DHT22;1894;51.038;13.692;2022-09-09T06:06:31;15.90;99.90
3758;DHT22;1894;51.038;13.692;2022-09-09T06:09:07;16.00;99.90
3758;DHT22;1894;51.038;13.692;2022-09-09T06:11:39;16.20;99.90
3758;DHT22;1894;51.038;13.692;2022-09-09T06:14:07;16.20;99.90
3758;DHT22;1894;51.038;13.692;2022-09-09T06:16:37;16.30;99.90
3758;DHT22;1894;51.038;13.692;2022-09-09T06:19:13;16.10;99.90
3758;DHT22;1894;51.038;13.692;2022-09-09T06:21:41;16.10;99.90
3758;DHT22;1894;51.038;13.692;2022-09-09T06:24:10;16.20;99.90
3758;DHT22;1894;51.038;13.692;2022-09-09T06:26:41;16.30;99.90
3758;DHT22;1894;51.038;13.692;2022-09-09T06:29:11;16.40;99.90
3758;DHT22;1894;51.038;13.692;2022-09-09T06:31:39;16.30;99.90
3758;DHT22;1894;51.038;13.692;2022-09-09T06:34:22;16.30;99.90
3758;DHT22;1894;51.038;13.692;2022-09-09T06:36:53;16.40;99.90
3758;DHT22;1894;51.038;13.692;2022-09-09T06:39:21;16.50;99.90
3758;DHT22;1894;51.038;13.692;2022-09-09T06:41:49;16.60;99.90
3758;DHT22;1894;51.038;13.692;2022-09-09T06:44:35;16.50;99.90
3758;DHT22;1894;51.038;13.692;2022-09-09T06:47:06;16.80;99.90
3758;DHT22;1894;51.038;13.692;2022-09-09T06:49:33;17.10;99.90
3758;DHT22;1894;51.038;13.692;2022-09-09T06:52:05;17.40;99.90
3758;DHT22;1894;51.038;13.692;2022-09-09T06:54:33;17.50;99.90
3758;DHT22;1894;51.038;13.692;2022-09-09T06:57:00;17.60;99.90
3758;DHT22;1894;51.038;13.692;2022-09-09T06:59:47;17.70;99.90
3758;DHT22;1894;51.038;13.692;2022-09-09T07:02:15;17.90;99.90
3758;DHT22;1894;51.038;13.692;2022-09-09T07:04:42;17.80;99.90
3758;DHT22;1894;51.038;13.692;2022-09-09T07:07:10;18.00;99.90
3758;DHT22;1894;51.038;13.692;2022-09-09T07:09:39;18.40;99.90
3758;DHT22;1894;51.038;13.692;2022-09-09T07:12:08;18.60;99.90
3758;DHT22;1894;51.038;13.692;2022-09-09T07:14:40;18.60;99.90
3758;DHT22;1894;51.038;13.692;2022-09-09T07:17:08;18.70;99.90
3758;DHT22;1894;51.038;13.692;2022-09-09T07:19:38;18.60;99.90
3758;DHT22;1894;51.038;13.692;2022-09-09T07:22:06;18.70;99.90
3758;DHT22;1894;51.038;13.692;2022-09-09T07:24:34;19.30;99.90
3758;DHT22;1894;51.038;13.692;2022-09-09T07:27:02;19.50;99.90
3758;DHT22;1894;51.038;13.692;2022-09-09T07:29:30;19.90;99.90
3758;DHT22;1894;51.038;13.692;2022-09-09T07:31:57;20.20;99.90
3758;DHT22;1894;51.038;13.692;2022-09-09T07:34:31;20.30;99.90
3758;DHT22;1894;51.038;13.692;2022-09-09T07:36:58;20.30;99.90
3758;DHT22;1894;51.038;13.692;2022-09-09T07:39:25;20.30;99.90
3758;DHT22;1894;51.038;13.692;2022-09-09T07:41:54;20.40;99.90
3758;DHT22;1894;51.038;13.692;2022-09-09T07:44:24;20.30;99.90
3758;DHT22;1894;51.038;13.692;2022-09-09T07:47:03;20.50;99.90
3758;DHT22;1894;51.038;13.692;2022-09-09T07:49:37;20.70;99.90
3758;DHT22;1894;51.038;13.692;2022-09-09T07:52:06;21.10;99.90
3758;DHT22;1894;51.038;13.692;2022-09-09T07:54:41;21.60;99.90
3758;DHT22;1894;51.038;13.692;2022-09-09T07:57:10;21.70;99.90
3758;DHT22;1894;51.038;13.692;2022-09-09T07:59:37;22.00;99.90
3758;DHT22;1894;51.038;13.692;2022-09-09T08:02:05;22.30;99.90
3758;DHT22;1894;51.038;13.692;2022-09-09T08:04:34;22.20;99.90
3758;DHT22;1894;51.038;13.692;2022-09-09T08:07:03;22.00;99.90
3758;DHT22;1894;51.038;13.692;2022-09-09T08:09:36;22.20;99.90
3758;DHT22;1894;51.038;13.692;2022-09-09T08:12:09;22.20;99.90
3758;DHT22;1894;51.038;13.692;2022-09-09T08:14:37;22.00;99.90
3758;DHT22;1894;51.038;13.692;2022-09-09T08:17:06;22.20;99.90
3758;DHT22;1894;51.038;13.692;2022-09-09T08:19:33;22.10;99.90
3758;DHT22;1894;51.038;13.692;2022-09-09T08:22:08;22.30;99.90
3758;DHT22;1894;51.038;13.692;2022-09-09T08:24:40;21.90;99.90
3758;DHT22;1894;51.038;13.692;2022-09-09T08:27:08;22.20;99.90
3758;DHT22;1894;51.038;13.692;2022-09-09T08:29:37;22.10;99.90
3758;DHT22;1894;51.038;13.692;2022-09-09T08:32:05;21.70;99.90
3758;DHT22;1894;51.038;13.692;2022-09-09T08:34:33;21.90;99.90
3758;DHT22;1894;51.038;13.692;2022-09-09T08:37:05;21.90;99.90
3758;DHT22;1894;51.038;13.692;2022-09-09T08:39:39;21.70;99.90
3758;DHT22;1894;51.038;13.692;2022-09-09T08:45:19;21.90;99.90
3758;DHT22;1894;51.038;13.692;2022-09-09T08:48:27;22.20;99.90
3758;DHT22;1894;51.038;13.692;2022-09-09T08:51:03;22.40;99.90
3758;DHT22;1894;51.038;13.692;2022-09-09T08:53:52;22.90;99.90
3758;DHT22;1894;51.038;13.692;2022-09-09T08:56:27;23.20;99.90
3758;DHT22;1894;51.038;13.692;2022-09-09T08:58:59;23.40;99.90
3758;DHT22;1894;51.038;13.692;2022-09-09T09:02:04;23.10;99.90
3758;DHT22;1894;51.038;13.692;2022-09-09T09:07:39;22.60;99.90
3758;DHT22;1894;51.038;13.692;2022-09-09T09:10:46;22.40;99.90
3758;DHT22;1894;51.038;13.692;2022-09-09T09:13:23;22.60;99.90
3758;DHT22;1894;51.038;13.692;2022-09-09T09:18:54;22.00;99.90
3758;DHT22;1894;51.038;13.692;2022-09-09T09:21:42;21.60;99.90
3758;DHT22;1894;51.038;13.692;2022-09-09T09:24:27;21.30;99.90
3758;DHT22;1894;51.038;13.692;2022-09-09T09:27:13;21.10;99.90
3758;DHT22;1894;51.038;13.692;2022-09-09T09:29:48;21.00;99.90
3758;DHT22;1894;51.038;13.692;2022-09-09T09:32:39;21.20;99.90
3758;DHT22;1894;51.038;13.692;2022-09-09T09:35:12;21.60;99.90
3758;DHT22;1894;51.038;13.692;2022-09-09T09:37:41;22.20;99.90
3758;DHT22;1894;51.038;13.692;2022-09-09T09:40:32;22.50;99.90
3758;DHT22;1894;51.038;13.692;2022-09-09T09:43:02;22.80;99.90
3758;DHT22;1894;51.038;13.692;2022-09-09T09:45:43;22.90;99.90
3758;DHT22;1894;51.038;13.692;2022-09-09T09:48:35;23.40;99.90
3758;DHT22;1894;51.038;13.692;2022-09-09T09:51:11;23.40;99.90
3758;DHT22;1894;51.038;13.692;2022-09-09T09:53:43;23.80;99.90
3758;DHT22;1894;51.038;13.692;2022-09-09T09:56:13;23.80;99.90
3758;DHT22;1894;51.038;13.692;2022-09-09T10:01:28;23.90;99.90
3758;DHT22;1894;51.038;13.692;2022-09-09T10:04:15;23.90;99.90
3758;DHT22;1894;51.038;13.692;2022-09-09T10:06:43;24.30;99.90
3758;DHT22;1894;51.038;13.692;2022-09-09T10:09:27;24.70;99.90
3758;DHT22;1894;51.038;13.692;2022-09-09T10:12:09;24.70;99.90
3758;DHT22;1894;51.038;13.692;2022-09-09T10:21:10;23.70;99.90
3758;DHT22;1894;51.038;13.692;2022-09-09T10:23:55;23.10;99.90
3758;DHT22;1894;51.038;13.692;2022-09-09T10:26:48;22.90;99.90
3758;DHT22;1894;51.038;13.692;2022-09-09T10:32:49;22.80;99.90
3758;DHT22;1894;51.038;13.692;2022-09-09T10:36:06;23.00;99.90
3758;DHT22;1894;51.038;13.692;2022-09-09T10:38:44;23.10;99.90
3758;DHT22;1894;51.038;13.692;2022-09-09T10:53:14;24.20;99.90
3758;DHT22;1894;51.038;13.692;2022-09-09T10:55:57;24.60;99.90
3758;DHT22;1894;51.038;13.692;2022-09-09T11:01:24;24.60;99.90
3758;DHT22;1894;51.038;13.692;2022-09-09T11:04:10;24.70;99.90
3758;DHT22;1894;51.038;13.692;2022-09-09T11:06:44;24.70;99.90
3758;DHT22;1894;51.038;13.692;2022-09-09T11:09:17;24.60;99.90
3758;DHT22;1894;51.038;13.692;2022-09-09T11:11:58;23.90;99.90
3758;DHT22;1894;51.038;13.692;2022-09-09T11:17:15;23.70;99.90
3758;DHT22;1894;51.038;13.692;2022-09-09T11:19:44;23.80;99.90
3758;DHT22;1894;51.038;13.692;2022-09-09T11:28:38;23.90;99.90
3758;DHT22;1894;51.038;13.692;2022-09-09T11:34:23;24.00;99.90
3758;DHT22;1894;51.038;13.692;2022-09-09T11:40:27;23.80;99.90
3758;DHT22;1894;51.038;13.692;2022-09-09T11:43:03;23.80;99.90
3758;DHT22;1894;51.038;13.692;2022-09-09T11:45:34;23.60;99.90
3758;DHT22;1894;51.038;13.692;2022-09-09T11:48:03;23.60;99.90
3758;DHT22;1894;51.038;13.692;2022-09-09T11:50:35;23.60;99.90
3758;DHT22;1894;51.038;13.692;2022-09-09T11:53:26;23.80;99.90
3758;DHT22;1894;51.038;13.692;2022-09-09T11:56:09;24.20;99.90
3758;DHT22;1894;51.038;13.692;2022-09-09T11:59:02;26.00;99.90
3758;DHT22;1894;51.038;13.692;2022-09-09T12:06:59;31.90;99.90
3758;DHT22;1894;51.038;13.692;2022-09-09T12:09:52;32.20;99.90
3758;DHT22;1894;51.038;13.692;2022-09-09T12:12:27;30.50;99.90
3758;DHT22;1894;51.038;13.692;2022-09-09T12:17:48;28.20;99.90
3758;DHT22;1894;51.038;13.692;2022-09-09T12:20:36;27.00;99.90
3758;DHT22;1894;51.038;13.692;2022-09-09T12:28:49;25.90;99.90
3758;DHT22;1894;51.038;13.692;2022-09-09T12:40:14;25.80;99.90
3758;DHT22;1894;51.038;13.692;2022-09-09T12:42:46;26.00;99.90
3758;DHT22;1894;51.038;13.692;2022-09-09T12:45:24;26.80;99.90
3758;DHT22;1894;51.038;13.692;2022-09-09T12:50:32;30.90;99.90
3758;DHT22;1894;51.038;13.692;2022-09-09T12:53:13;33.40;99.60
3758;DHT22;1894;51.038;13.692;2022-09-09T12:55:54;34.60;96.40
3758;DHT22;1894;51.038;13.692;2022-09-09T12:58:24;36.40;90.60
3758;DHT22;1894;51.038;13.692;2022-09-09T13:00:53;34.80;90.00
3758;DHT22;1894;51.038;13.692;2022-09-09T13:03:25;33.10;94.10
3758;DHT22;1894;51.038;13.692;2022-09-09T13:05:54;31.60;95.60
3758;DHT22;1894;51.038;13.692;2022-09-09T13:08:27;30.40;97.60
3758;DHT22;1894;51.038;13.692;2022-09-09T13:10:58;29.50;99.90
3758;DHT22;1894;51.038;13.692;2022-09-09T13:13:37;29.00;99.90
3758;DHT22;1894;51.038;13.692;2022-09-09T13:16:20;29.10;99.90
3758;DHT22;1894;51.038;13.692;2022-09-09T13:18:50;28.30;99.90
3758;DHT22;1894;51.038;13.692;2022-09-09T13:21:18;30.10;99.90
3758;DHT22;1894;51.038;13.692;2022-09-09T13:23:50;31.30;97.40
3758;DHT22;1894;51.038;13.692;2022-09-09T13:26:26;31.00;98.70
3758;DHT22;1894;51.038;13.692;2022-09-09T13:28:54;30.10;99.20
3758;DHT22;1894;51.038;13.692;2022-09-09T13:31:30;29.10;99.90
3758;DHT22;1894;51.038;13.692;2022-09-09T13:33:59;28.70;99.90
3758;DHT22;1894;51.038;13.692;2022-09-09T13:36:37;28.10;99.90
3758;DHT22;1894;51.038;13.692;2022-09-09T13:39:15;27.70;99.90
3758;DHT22;1894;51.038;13.692;2022-09-09T13:41:45;27.70;99.90
3758;DHT22;1894;51.038;13.692;2022-09-09T13:44:31;28.10;99.90
3758;DHT22;1894;51.038;13.692;2022-09-09T13:47:36;27.80;99.90
3758;DHT22;1894;51.038;13.692;2022-09-09T13:50:26;27.40;99.90
3758;DHT22;1894;51.038;13.692;2022-09-09T13:52:57;26.60;99.90
3758;DHT22;1894;51.038;13.692;2022-09-09T13:55:27;26.30;99.90
3758;DHT22;1894;51.038;13.692;2022-09-09T13:57:56;26.00;99.90
3758;DHT22;1894;51.038;13.692;2022-09-09T14:00:27;26.00;99.90
3758;DHT22;1894;51.038;13.692;2022-09-09T14:02:56;25.90;99.90
3758;DHT22;1894;51.038;13.692;2022-09-09T14:05:23;25.80;99.90
3758;DHT22;1894;51.038;13.692;2022-09-09T14:07:51;26.00;99.90
3758;DHT22;1894;51.038;13.692;2022-09-09T14:10:19;26.10;99.90
3758;DHT22;1894;51.038;13.692;2022-09-09T14:12:47;26.10;99.90
3758;DHT22;1894;51.038;13.692;2022-09-09T14:15:15;25.90;99.90
3758;DHT22;1894;51.038;13.692;2022-09-09T14:17:42;25.90;99.90
3758;DHT22;1894;51.038;13.692;2022-09-09T14:20:10;26.10;99.90
3758;DHT22;1894;51.038;13.692;2022-09-09T14:22:38;25.90;99.90
3758;DHT22;1894;51.038;13.692;2022-09-09T14:25:06;26.30;99.90
3758;DHT22;1894;51.038;13.692;2022-09-09T14:27:34;26.60;99.90
3758;DHT22;1894;51.038;13.692;2022-09-09T14:30:01;26.80;99.90
3758;DHT22;1894;51.038;13.692;2022-09-09T14:32:28;27.00;99.90
3758;DHT22;1894;51.038;13.692;2022-09-09T14:34:55;27.40;99.90
3758;DHT22;1894;51.038;13.692;2022-09-09T14:37:23;27.50;99.90
3758;DHT22;1894;51.038;13.692;2022-09-09T14:39:50;27.70;99.90
3758;DHT22;1894;51.038;13.692;2022-09-09T14:42:18;28.00;99.90
3758;DHT22;1894;51.038;13.692;2022-09-09T14:44:45;27.90;99.90
3758;DHT22;1894;51.038;13.692;2022-09-09T14:47:12;28.30;99.90
3758;DHT22;1894;51.038;13.692;2022-09-09T14:49:39;29.50;99.90
3758;DHT22;1894;51.038;13.692;2022-09-09T14:52:10;30.80;97.10
3758;DHT22;1894;51.038;13.692;2022-09-09T14:54:37;30.50;96.10
3758;DHT22;1894;51.038;13.692;2022-09-09T14:57:05;28.90;93.70
3758;DHT22;1894;51.038;13.692;2022-09-09T14:59:32;27.70;98.30
3758;DHT22;1894;51.038;13.692;2022-09-09T15:01:59;26.60;96.20
3758;DHT22;1894;51.038;13.692;2022-09-09T15:04:30;27.60;95.10
3758;DHT22;1894;51.038;13.692;2022-09-09T15:06:58;29.30;92.90
3758;DHT22;1894;51.038;13.692;2022-09-09T15:09:25;29.40;91.60
3758;DHT22;1894;51.038;13.692;2022-09-09T15:11:52;28.10;93.30
3758;DHT22;1894;51.038;13.692;2022-09-09T15:14:19;27.60;95.20
3758;DHT22;1894;51.038;13.692;2022-09-09T15:16:51;27.40;96.20
3758;DHT22;1894;51.038;13.692;2022-09-09T15:19:18;27.10;96.90
3758;DHT22;1894;51.038;13.692;2022-09-09T15:21:45;26.90;95.90
3758;DHT22;1894;51.038;13.692;2022-09-09T15:24:12;27.60;95.20
3758;DHT22;1894;51.038;13.692;2022-09-09T15:26:40;28.80;95.40
3758;DHT22;1894;51.038;13.692;2022-09-09T15:29:08;31.50;91.60
3758;DHT22;1894;51.038;13.692;2022-09-09T15:31:35;33.10;89.00
3758;DHT22;1894;51.038;13.692;2022-09-09T15:34:07;32.40;86.00
3758;DHT22;1894;51.038;13.692;2022-09-09T15:36:36;31.00;86.50
3758;DHT22;1894;51.038;13.692;2022-09-09T15:39:10;30.90;89.50
3758;DHT22;1894;51.038;13.692;2022-09-09T15:41:45;30.80;91.20
3758;DHT22;1894;51.038;13.692;2022-09-09T15:44:14;30.40;91.80
3758;DHT22;1894;51.038;13.692;2022-09-09T15:46:50;29.70;91.70
3758;DHT22;1894;51.038;13.692;2022-09-09T15:49:25;28.90;93.60
3758;DHT22;1894;51.038;13.692;2022-09-09T15:51:57;28.20;96.00
3758;DHT22;1894;51.038;13.692;2022-09-09T15:54:26;28.00;97.00
3758;DHT22;1894;51.038;13.692;2022-09-09T15:56:55;27.70;97.60
3758;DHT22;1894;51.038;13.692;2022-09-09T15:59:25;27.20;98.10
3758;DHT22;1894;51.038;13.692;2022-09-09T16:01:55;26.90;99.90
3758;DHT22;1894;51.038;13.692;2022-09-09T16:04:23;26.60;99.90
3758;DHT22;1894;51.038;13.692;2022-09-09T16:06:52;26.00;99.90
3758;DHT22;1894;51.038;13.692;2022-09-09T16:09:21;25.80;99.90
3758;DHT22;1894;51.038;13.692;2022-09-09T16:11:49;25.20;99.90
3758;DHT22;1894;51.038;13.692;2022-09-09T16:14:16;24.90;99.90
3758;DHT22;1894;51.038;13.692;2022-09-09T16:16:44;24.60;99.90
3758;DHT22;1894;51.038;13.692;2022-09-09T16:19:12;24.40;99.90
3758;DHT22;1894;51.038;13.692;2022-09-09T16:21:48;24.30;99.90
3758;DHT22;1894;51.038;13.692;2022-09-09T16:24:17;24.30;99.90
3758;DHT22;1894;51.038;13.692;2022-09-09T16:26:47;24.20;99.90
3758;DHT22;1894;51.038;13.692;2022-09-09T16:29:17;24.00;99.90
3758;DHT22;1894;51.038;13.692;2022-09-09T16:31:46;23.80;99.90
3758;DHT22;1894;51.038;13.692;2022-09-09T16:34:15;23.60;99.90
3758;DHT22;1894;51.038;13.692;2022-09-09T16:36:45;23.60;99.90
3758;DHT22;1894;51.038;13.692;2022-09-09T16:39:15;23.70;99.90
3758;DHT22;1894;51.038;13.692;2022-09-09T16:41:44;23.60;99.90
3758;DHT22;1894;51.038;13.692;2022-09-09T16:44:14;23.60;99.90
3758;DHT22;1894;51.038;13.692;2022-09-09T16:46:46;23.60;99.90
3758;DHT22;1894;51.038;13.692;2022-09-09T16:49:15;23.70;99.90
3758;DHT22;1894;51.038;13.692;2022-09-09T16:51:45;23.80;99.90
3758;DHT22;1894;51.038;13.692;2022-09-09T16:54:14;23.60;99.90
3758;DHT22;1894;51.038;13.692;2022-09-09T16:56:45;23.50;99.90
3758;DHT22;1894;51.038;13.692;2022-09-09T16:59:16;23.40;99.90
3758;DHT22;1894;51.038;13.692;2022-09-09T17:01:46;23.10;99.90
3758;DHT22;1894;51.038;13.692;2022-09-09T17:04:23;22.90;99.90
3758;DHT22;1894;51.038;13.692;2022-09-09T17:06:54;22.70;99.90
3758;DHT22;1894;51.038;13.692;2022-09-09T17:09:22;22.60;99.90
3758;DHT22;1894;51.038;13.692;2022-09-09T17:11:50;22.50;99.90
3758;DHT22;1894;51.038;13.692;2022-09-09T17:14:20;22.40;99.90
3758;DHT22;1894;51.038;13.692;2022-09-09T17:16:48;22.20;99.90
3758;DHT22;1894;51.038;13.692;2022-09-09T17:19:16;22.10;99.90
3758;DHT22;1894;51.038;13.692;2022-09-09T17:21:43;21.90;99.90
3758;DHT22;1894;51.038;13.692;2022-09-09T17:24:33;21.80;99.90
3758;DHT22;1894;51.038;13.692;2022-09-09T17:27:01;21.60;99.90
3758;DHT22;1894;51.038;13.692;2022-09-09T17:29:29;21.50;99.90
3758;DHT22;1894;51.038;13.692;2022-09-09T17:31:56;21.40;99.90
3758;DHT22;1894;51.038;13.692;2022-09-09T17:34:23;21.20;99.90
3758;DHT22;1894;51.038;13.692;2022-09-09T17:36:51;21.10;99.90
3758;DHT22;1894;51.038;13.692;2022-09-09T17:39:19;21.00;99.90
3758;DHT22;1894;51.038;13.692;2022-09-09T17:41:46;20.80;99.90
3758;DHT22;1894;51.038;13.692;2022-09-09T17:44:13;20.70;99.90
3758;DHT22;1894;51.038;13.692;2022-09-09T17:46:42;20.50;99.90
3758;DHT22;1894;51.038;13.692;2022-09-09T17:49:12;20.40;99.90
3758;DHT22;1894;51.038;13.692;2022-09-09T17:51:44;20.30;99.90
3758;DHT22;1894;51.038;13.692;2022-09-09T17:54:14;20.20;99.90
3758;DHT22;1894;51.038;13.692;2022-09-09T17:56:47;20.20;99.90
3758;DHT22;1894;51.038;13.692;2022-09-09T17:59:16;20.10;99.90
3758;DHT22;1894;51.038;13.692;2022-09-09T18:01:46;20.00;99.90
3758;DHT22;1894;51.038;13.692;2022-09-09T18:04:16;20.00;99.90
3758;DHT22;1894;51.038;13.692;2022-09-09T18:06:48;19.80;99.90
3758;DHT22;1894;51.038;13.692;2022-09-09T18:09:21;19.80;99.90
3758;DHT22;1894;51.038;13.692;2022-09-09T18:11:53;19.70;99.90
3758;DHT22;1894;51.038;13.692;2022-09-09T18:14:27;19.60;99.90